createdAt,value
2022-10-29T00:01:24.053Z,99513.91
2022-10-29T00:03:52.595Z,99515.72
2022-10-29T00:06:21.000Z,99518.31
2022-10-29T00:08:49.503Z,99526.47
2022-10-29T00:11:21.626Z,99516.34
2022-10-29T00:13:54.609Z,99521.25
2022-10-29T00:16:25.500Z,99517.75
2022-10-29T00:18:59.601Z,99528.22
2022-10-29T00:21:28.975Z,99531.84
2022-10-29T00:23:59.228Z,99525.53
2022-10-29T00:26:31.300Z,99534.78
2022-10-29T00:29:02.023Z,99536.59
2022-10-29T00:31:30.584Z,99546.75
2022-10-29T00:34:02.220Z,99545.28
2022-10-29T00:36:31.703Z,99554.00
2022-10-29T00:39:00.201Z,99553.78
2022-10-29T00:41:30.901Z,99561.75
2022-10-29T00:44:36.746Z,99562.09
2022-10-29T00:47:13.077Z,99559.16
2022-10-29T00:49:43.479Z,99562.06
2022-10-29T00:52:12.321Z,99556.56
2022-10-29T00:54:44.833Z,99566.03
2022-10-29T00:57:30.438Z,99561.06
2022-10-29T01:00:00.930Z,99569.53
2022-10-29T01:02:33.079Z,99577.00
2022-10-29T01:05:03.279Z,99579.63
2022-10-29T01:07:32.134Z,99579.41
2022-10-29T01:10:00.795Z,99587.66
2022-10-29T01:12:47.961Z,99589.22
2022-10-29T01:15:42.820Z,99596.66
2022-10-29T01:18:32.183Z,99595.44
2022-10-29T01:21:39.283Z,99592.94
2022-10-29T01:24:22.425Z,99591.97
2022-10-29T01:27:05.490Z,99602.50
2022-10-29T01:30:06.397Z,99601.78
2022-10-29T01:33:01.266Z,99608.69
2022-10-29T01:36:04.044Z,99614.59
2022-10-29T01:38:58.025Z,99612.81
2022-10-29T01:41:46.802Z,99615.91
2022-10-29T01:44:29.998Z,99616.69
2022-10-29T01:47:03.907Z,99632.28
2022-10-29T01:49:46.623Z,99629.00
2022-10-29T01:52:17.874Z,99630.78
2022-10-29T01:54:51.047Z,99631.06
2022-10-29T01:57:38.693Z,99644.09
2022-10-29T02:00:16.781Z,99635.69
2022-10-29T02:03:00.232Z,99644.09
2022-10-29T02:06:08.841Z,99643.13
2022-10-29T02:08:47.871Z,99648.72
2022-10-29T02:11:58.913Z,99657.66
2022-10-29T02:14:53.121Z,99652.31
2022-10-29T02:17:21.646Z,99661.00
2022-10-29T02:19:49.999Z,99654.59
2022-10-29T02:22:18.343Z,99660.22
2022-10-29T02:24:46.637Z,99662.25
2022-10-29T02:27:14.992Z,99665.06
2022-10-29T02:29:43.597Z,99659.94
2022-10-29T02:32:11.932Z,99659.66
2022-10-29T02:34:40.223Z,99664.28
2022-10-29T02:37:08.547Z,99657.88
2022-10-29T02:39:36.891Z,99658.63
2022-10-29T02:42:05.356Z,99655.53
2022-10-29T02:44:33.680Z,99657.06
2022-10-29T02:47:01.967Z,99657.53
2022-10-29T02:49:30.391Z,99649.59
2022-10-29T02:51:58.721Z,99656.72
2022-10-29T02:54:27.045Z,99653.91
2022-10-29T02:56:55.360Z,99655.69
2022-10-29T02:59:23.776Z,99651.03
2022-10-29T03:01:52.294Z,99648.22
2022-10-29T03:04:20.725Z,99651.25
2022-10-29T03:06:49.448Z,99642.28
2022-10-29T03:09:17.772Z,99643.75
2022-10-29T03:11:46.098Z,99637.31
2022-10-29T03:14:14.488Z,99633.69
2022-10-29T03:16:42.782Z,99630.09
2022-10-29T03:19:11.158Z,99625.19
2022-10-29T03:21:39.481Z,99621.56
2022-10-29T03:24:08.114Z,99617.19
2022-10-29T03:26:36.449Z,99620.19
2022-10-29T03:29:04.853Z,99609.44
2022-10-29T03:31:33.217Z,99615.03
2022-10-29T03:34:01.581Z,99609.34
2022-10-29T03:36:30.484Z,99601.38
2022-10-29T03:38:58.778Z,99605.66
2022-10-29T03:41:27.095Z,99605.84
2022-10-29T03:46:28.530Z,99591.66
2022-10-29T03:48:56.871Z,99597.22
2022-10-29T03:51:25.448Z,99590.75
2022-10-29T03:53:53.819Z,99584.56
2022-10-29T03:56:22.140Z,99581.69
2022-10-29T03:58:50.419Z,99582.91
2022-10-29T04:01:18.787Z,99580.03
2022-10-29T04:03:47.227Z,99568.69
2022-10-29T04:06:17.050Z,99567.09
2022-10-29T04:08:45.444Z,99566.03
2022-10-29T04:11:15.247Z,99565.72
2022-10-29T04:13:43.612Z,99556.97
2022-10-29T04:16:11.905Z,99553.63
2022-10-29T04:18:40.318Z,99548.44
2022-10-29T04:29:34.124Z,99520.53
2022-10-29T04:32:02.420Z,99527.41
2022-10-29T04:34:30.789Z,99512.69
2022-10-29T04:36:59.186Z,99509.31
2022-10-29T04:39:27.521Z,99508.25
2022-10-29T04:41:55.834Z,99492.31
2022-10-29T04:44:24.233Z,99496.59
2022-10-29T04:46:52.584Z,99491.81
2022-10-29T04:49:20.944Z,99485.00
2022-10-29T04:51:49.341Z,99493.84
2022-10-29T04:54:17.739Z,99482.66
2022-10-29T04:56:46.128Z,99477.16
2022-10-29T04:59:14.544Z,99472.91
2022-10-29T05:01:42.926Z,99465.44
2022-10-29T05:04:11.529Z,99460.03
2022-10-29T05:06:39.915Z,99451.00
2022-10-29T05:09:08.209Z,99440.69
2022-10-29T05:11:36.491Z,99437.09
2022-10-29T05:14:04.969Z,99432.97
2022-10-29T05:16:33.850Z,99430.38
2022-10-29T05:19:02.276Z,99422.66
2022-10-29T05:21:30.590Z,99419.84
2022-10-29T05:23:59.073Z,99425.69
2022-10-29T05:26:27.357Z,99412.34
2022-10-29T05:28:55.701Z,99399.94
2022-10-29T05:31:23.985Z,99399.94
2022-10-29T05:33:55.502Z,99393.00
2022-10-29T05:36:24.472Z,99383.97
2022-10-29T05:38:52.806Z,99388.88
2022-10-29T05:41:21.319Z,99378.53
2022-10-29T05:43:52.691Z,99378.75
2022-10-29T05:46:21.156Z,99366.91
2022-10-29T05:48:49.480Z,99368.97
2022-10-29T05:51:17.803Z,99371.03
2022-10-29T05:53:46.199Z,99362.00
2022-10-29T05:56:14.553Z,99351.13
2022-10-29T05:58:42.917Z,99348.75
2022-10-29T06:01:12.569Z,99349.94
2022-10-29T06:03:41.300Z,99351.13
2022-10-29T06:06:09.799Z,99348.94
2022-10-29T06:08:38.270Z,99344.88
2022-10-29T06:11:06.908Z,99329.91
2022-10-29T06:13:35.259Z,99340.66
2022-10-29T06:16:03.798Z,99341.75
2022-10-29T06:18:32.210Z,99337.72
2022-10-29T06:21:01.540Z,99322.53
2022-10-29T06:23:30.794Z,99333.41
2022-10-29T06:26:02.820Z,99334.31
2022-10-29T06:28:34.743Z,99325.81
2022-10-29T06:31:04.044Z,99318.09
2022-10-29T06:33:32.546Z,99314.19
2022-10-29T06:36:02.344Z,99314.72
2022-10-29T06:38:30.715Z,99305.72
2022-10-29T06:40:59.097Z,99310.25
2022-10-29T06:43:27.581Z,99300.91
2022-10-29T06:45:56.588Z,99310.22
2022-10-29T06:48:24.959Z,99305.78
2022-10-29T06:50:54.322Z,99296.81
2022-10-29T06:53:22.788Z,99296.81
2022-10-29T06:55:51.131Z,99300.38
2022-10-29T06:58:21.533Z,99286.25
2022-10-29T07:00:50.314Z,99287.00
2022-10-29T07:03:21.374Z,99286.06
2022-10-29T07:05:56.024Z,99282.59
2022-10-29T07:08:24.455Z,99272.72
2022-10-29T07:10:54.252Z,99272.31
2022-10-29T07:13:22.544Z,99269.50
2022-10-29T07:15:50.979Z,99258.94
2022-10-29T07:18:19.341Z,99254.81
2022-10-29T07:20:47.980Z,99255.78
2022-10-29T07:23:16.466Z,99253.69
2022-10-29T07:25:45.149Z,99241.66
2022-10-29T07:28:19.433Z,99247.19
2022-10-29T07:30:49.336Z,99246.06
2022-10-29T07:33:18.692Z,99245.88
2022-10-29T07:35:48.380Z,99248.06
2022-10-29T07:38:16.996Z,99245.03
2022-10-29T07:40:57.070Z,99243.72
2022-10-29T07:43:25.451Z,99248.06
2022-10-29T07:45:54.393Z,99239.25
2022-10-29T07:48:23.076Z,99241.53
2022-10-29T07:50:51.757Z,99235.44
2022-10-29T07:53:20.154Z,99234.81
2022-10-29T07:55:54.596Z,99241.47
2022-10-29T07:58:23.788Z,99239.16
2022-10-29T08:00:52.496Z,99239.38
2022-10-29T08:03:20.939Z,99243.03
2022-10-29T08:05:56.331Z,99240.09
2022-10-29T08:08:26.061Z,99235.88
2022-10-29T08:10:54.416Z,99246.53
2022-10-29T08:13:22.728Z,99251.53
2022-10-29T08:15:51.083Z,99246.22
2022-10-29T08:18:19.999Z,99241.44
2022-10-29T08:20:48.471Z,99246.09
2022-10-29T08:23:17.128Z,99241.34
2022-10-29T08:25:46.369Z,99236.56
2022-10-29T08:28:16.661Z,99239.19
2022-10-29T08:30:49.894Z,99244.63
2022-10-29T08:33:19.000Z,99243.84
2022-10-29T08:35:47.481Z,99233.66
2022-10-29T08:38:16.074Z,99232.91
2022-10-29T08:41:16.656Z,99243.22
2022-10-29T08:44:06.327Z,99241.25
2022-10-29T08:46:58.952Z,99238.00
2022-10-29T08:49:52.059Z,99242.66
2022-10-29T08:52:29.111Z,99238.88
2022-10-29T08:55:35.962Z,99239.75
2022-10-29T08:58:29.125Z,99239.06
2022-10-29T09:00:59.888Z,99235.28
2022-10-29T09:03:31.530Z,99229.94
2022-10-29T09:06:18.564Z,99231.56
2022-10-29T09:09:12.156Z,99231.66
2022-10-29T09:11:58.460Z,99235.56
2022-10-29T09:14:45.376Z,99234.59
2022-10-29T09:17:33.878Z,99237.75
2022-10-29T09:20:25.241Z,99240.63
2022-10-29T09:23:03.171Z,99238.91
2022-10-29T09:25:57.390Z,99233.59
2022-10-29T09:29:08.185Z,99230.56
2022-10-29T09:31:44.275Z,99234.22
2022-10-29T09:34:26.162Z,99235.31
2022-10-29T09:36:57.942Z,99245.59
2022-10-29T09:39:41.069Z,99242.34
2022-10-29T09:42:23.425Z,99252.34
2022-10-29T09:44:59.505Z,99251.91
2022-10-29T09:47:34.976Z,99248.88
2022-10-29T09:50:09.216Z,99247.69
2022-10-29T09:52:41.980Z,99255.16
2022-10-29T09:55:28.373Z,99249.59
2022-10-29T09:57:58.616Z,99250.47
2022-10-29T10:00:30.031Z,99254.84
2022-10-29T10:03:01.234Z,99248.78
2022-10-29T10:05:32.568Z,99250.91
2022-10-29T10:08:09.975Z,99256.34
2022-10-29T10:11:02.678Z,99257.19
2022-10-29T10:13:32.876Z,99257.50
2022-10-29T10:16:03.933Z,99256.50
2022-10-29T10:21:25.416Z,99273.94
2022-10-29T10:23:55.779Z,99269.16
2022-10-29T10:26:44.082Z,99274.13
2022-10-29T10:29:24.212Z,99274.94
2022-10-29T10:32:17.974Z,99289.09
2022-10-29T10:34:46.276Z,99274.31
2022-10-29T10:37:21.209Z,99287.16
2022-10-29T10:39:59.588Z,99287.25
2022-10-29T10:42:43.784Z,99283.75
2022-10-29T10:45:24.846Z,99285.06
2022-10-29T10:47:59.740Z,99285.13
2022-10-29T10:50:38.623Z,99291.06
2022-10-29T10:53:18.027Z,99291.09
2022-10-29T10:55:54.134Z,99308.25
2022-10-29T10:58:28.589Z,99298.59
2022-10-29T11:01:16.341Z,99300.16
2022-10-29T11:04:14.653Z,99310.41
2022-10-29T11:06:47.834Z,99311.22
2022-10-29T11:09:32.823Z,99305.91
2022-10-29T11:12:04.671Z,99316.69
2022-10-29T11:15:05.179Z,99310.34
2022-10-29T11:17:56.034Z,99314.75
2022-10-29T11:20:29.316Z,99311.44
2022-10-29T11:23:35.708Z,99315.28
2022-10-29T11:26:15.525Z,99322.47
2022-10-29T11:29:22.786Z,99319.72
2022-10-29T11:31:55.053Z,99311.81
2022-10-29T11:34:41.837Z,99322.59
2022-10-29T11:37:24.882Z,99312.09
2022-10-29T11:39:58.944Z,99313.16
2022-10-29T11:42:27.549Z,99319.56
2022-10-29T11:44:56.262Z,99324.44
2022-10-29T11:47:40.845Z,99322.91
2022-10-29T11:50:35.059Z,99330.31
2022-10-29T11:53:09.531Z,99323.72
2022-10-29T11:56:05.712Z,99331.38
2022-10-29T11:59:20.800Z,99328.31
2022-10-29T12:02:08.249Z,99332.19
2022-10-29T12:05:01.086Z,99338.59
2022-10-29T12:07:56.993Z,99333.22
2022-10-29T12:10:41.891Z,99332.75
2022-10-29T12:13:19.040Z,99337.88
2022-10-29T12:15:53.481Z,99339.44
2022-10-29T12:18:24.920Z,99349.16
2022-10-29T12:21:18.506Z,99346.09
2022-10-29T12:23:46.760Z,99352.22
2022-10-29T12:26:38.910Z,99348.41
2022-10-29T12:29:18.559Z,99348.94
2022-10-29T12:32:00.667Z,99355.84
2022-10-29T12:34:40.880Z,99352.03
2022-10-29T12:37:41.572Z,99362.22
2022-10-29T12:40:26.180Z,99361.22
2022-10-29T12:42:55.607Z,99361.72
2022-10-29T12:45:26.566Z,99359.16
2022-10-29T12:48:14.760Z,99368.63
2022-10-29T12:51:05.139Z,99374.75
2022-10-29T12:53:48.387Z,99383.94
2022-10-29T12:56:17.681Z,99384.97
2022-10-29T12:58:51.780Z,99391.63
2022-10-29T13:01:57.523Z,99394.69
2022-10-29T13:04:35.116Z,99399.78
2022-10-29T13:07:24.216Z,99414.09
2022-10-29T13:10:31.746Z,99412.06
2022-10-29T13:13:17.163Z,99413.09
2022-10-29T13:16:06.768Z,99421.78
2022-10-29T13:18:41.860Z,99411.06
2022-10-29T13:21:10.738Z,99424.84
2022-10-29T13:23:39.460Z,99424.59
2022-10-29T13:26:09.329Z,99420.75
2022-10-29T13:28:37.591Z,99428.38
2022-10-29T13:31:05.863Z,99431.72
2022-10-29T13:33:34.146Z,99432.22
2022-10-29T13:36:17.772Z,99436.03
2022-10-29T13:39:04.904Z,99448.53
2022-10-29T13:41:41.363Z,99446.00
2022-10-29T13:44:17.797Z,99450.59
2022-10-29T13:46:52.085Z,99448.81
2022-10-29T13:49:39.062Z,99448.28
2022-10-29T13:52:13.611Z,99449.56
2022-10-29T13:54:52.865Z,99448.03
2022-10-29T13:57:27.409Z,99454.63
2022-10-29T14:00:10.068Z,99463.03
2022-10-29T14:02:40.964Z,99459.22
2022-10-29T14:05:31.134Z,99470.94
2022-10-29T14:08:12.856Z,99465.56
2022-10-29T14:10:41.314Z,99462.53
2022-10-29T14:13:24.818Z,99460.22
2022-10-29T14:16:08.577Z,99470.16
2022-10-29T14:18:45.370Z,99472.19
2022-10-29T14:21:25.860Z,99470.69
2022-10-29T14:23:59.907Z,99463.53
2022-10-29T14:26:30.116Z,99465.31
2022-10-29T14:29:13.635Z,99474.00
2022-10-29T14:31:42.060Z,99476.53
2022-10-29T14:34:27.816Z,99468.38
2022-10-29T14:37:22.867Z,99467.38
2022-10-29T14:39:59.014Z,99464.78
2022-10-29T14:42:44.671Z,99474.19
2022-10-29T14:45:24.879Z,99471.66
2022-10-29T14:48:04.197Z,99472.41
2022-10-29T14:50:33.112Z,99474.19
2022-10-29T14:53:06.775Z,99468.34
2022-10-29T14:55:47.250Z,99471.13
2022-10-29T14:58:27.502Z,99471.38
2022-10-29T15:01:01.999Z,99471.91
2022-10-29T15:03:35.925Z,99470.88
2022-10-29T15:06:20.060Z,99478.25
2022-10-29T15:09:00.456Z,99478.75
2022-10-29T15:12:03.214Z,99484.06
2022-10-29T15:14:54.653Z,99477.19
2022-10-29T15:17:30.364Z,99476.44
2022-10-29T15:20:04.685Z,99474.63
2022-10-29T15:22:42.296Z,99474.84
2022-10-29T15:25:23.520Z,99478.16
2022-10-29T15:27:54.136Z,99469.50
2022-10-29T15:30:29.546Z,99474.84
2022-10-29T15:33:01.396Z,99472.53
2022-10-29T15:35:30.591Z,99467.44
2022-10-29T15:37:58.961Z,99463.63
2022-10-29T15:40:27.570Z,99460.56
2022-10-29T15:42:56.482Z,99456.72
2022-10-29T15:45:29.704Z,99460.78
2022-10-29T15:48:09.963Z,99468.41
2022-10-29T15:50:44.611Z,99457.22
2022-10-29T15:53:17.845Z,99455.69
2022-10-29T15:55:46.449Z,99457.22
2022-10-29T15:58:20.978Z,99456.72
2022-10-29T16:00:49.365Z,99455.19
2022-10-29T16:03:19.307Z,99457.72
2022-10-29T16:06:00.364Z,99454.66
2022-10-29T16:08:37.474Z,99448.81
2022-10-29T16:11:11.677Z,99454.16
2022-10-29T16:13:40.499Z,99455.16
2022-10-29T16:16:20.447Z,99458.97
2022-10-29T16:18:52.978Z,99450.03
2022-10-29T16:21:24.167Z,99454.63
2022-10-29T16:23:53.008Z,99454.34
2022-10-29T16:26:23.846Z,99457.66
2022-10-29T16:28:55.629Z,99457.38
2022-10-29T16:31:27.339Z,99463.47
2022-10-29T16:33:59.593Z,99464.47
2022-10-29T16:36:28.458Z,99458.09
2022-10-29T16:38:56.783Z,99465.47
2022-10-29T16:41:25.137Z,99464.19
2022-10-29T16:43:53.939Z,99466.22
2022-10-29T16:46:22.653Z,99473.84
2022-10-29T16:48:51.044Z,99469.25
2022-10-29T16:51:19.353Z,99466.94
2022-10-29T16:53:47.635Z,99470.25
2022-10-29T16:56:15.943Z,99472.78
2022-10-29T16:58:44.294Z,99474.81
2022-10-29T17:01:12.823Z,99480.91
2022-10-29T17:03:41.375Z,99478.63
2022-10-29T17:06:11.545Z,99479.38
2022-10-29T17:08:40.089Z,99478.34
2022-10-29T17:11:11.411Z,99483.94
2022-10-29T17:13:40.329Z,99476.75
2022-10-29T17:16:15.585Z,99474.47
2022-10-29T17:18:44.031Z,99481.31
2022-10-29T17:21:12.621Z,99486.91
2022-10-29T17:23:41.017Z,99485.38
2022-10-29T17:26:09.353Z,99491.47
2022-10-29T17:28:39.486Z,99491.22
2022-10-29T17:31:08.899Z,99485.63
2022-10-29T17:33:37.463Z,99485.34
2022-10-29T17:36:16.913Z,99490.94
2022-10-29T17:38:45.606Z,99490.19
2022-10-29T17:41:13.929Z,99493.47
2022-10-29T17:43:42.353Z,99489.16
2022-10-29T17:46:10.716Z,99488.38
2022-10-29T17:48:39.842Z,99483.28
2022-10-29T17:51:09.345Z,99481.00
2022-10-29T17:53:40.098Z,99479.97
2022-10-29T17:56:08.783Z,99481.72
2022-10-29T17:58:40.443Z,99471.81
2022-10-29T18:01:11.248Z,99468.25
2022-10-29T18:03:40.009Z,99476.63
2022-10-29T18:06:10.873Z,99474.59
2022-10-29T18:08:41.266Z,99471.03
2022-10-29T18:11:12.599Z,99471.03
2022-10-29T18:13:45.151Z,99469.50
2022-10-29T18:16:15.773Z,99466.97
2022-10-29T18:19:00.611Z,99458.59
2022-10-29T18:21:31.840Z,99449.72
2022-10-29T18:24:00.214Z,99444.63
2022-10-29T18:26:34.935Z,99446.16
2022-10-29T18:29:08.598Z,99444.13
2022-10-29T18:31:37.602Z,99440.56
2022-10-29T18:34:08.545Z,99446.66
2022-10-29T18:36:37.209Z,99445.88
2022-10-29T18:39:07.212Z,99431.91
2022-10-29T18:41:36.645Z,99433.16
2022-10-29T18:44:05.156Z,99423.75
2022-10-29T18:46:33.713Z,99427.00
2022-10-29T18:49:02.379Z,99421.16
2022-10-29T18:51:33.088Z,99418.84
2022-10-29T18:54:01.764Z,99426.22
2022-10-29T18:56:31.404Z,99415.25
2022-10-29T18:59:01.270Z,99424.16
2022-10-29T19:01:35.198Z,99415.75
2022-10-29T19:04:06.826Z,99415.00
2022-10-29T19:06:38.006Z,99417.03
2022-10-29T19:09:10.457Z,99420.31
2022-10-29T19:11:39.122Z,99420.81
2022-10-29T19:14:10.665Z,99412.94
2022-10-29T19:16:39.010Z,99411.13
2022-10-29T19:19:16.074Z,99412.41
2022-10-29T19:21:46.841Z,99406.56
2022-10-29T19:24:16.245Z,99405.50
2022-10-29T19:26:45.242Z,99403.19
2022-10-29T19:29:14.322Z,99398.59
2022-10-29T19:31:45.191Z,99392.75
2022-10-29T19:34:13.608Z,99403.16
2022-10-29T19:36:41.962Z,99399.31
2022-10-29T19:39:10.378Z,99401.34
2022-10-29T19:41:38.719Z,99397.53
2022-10-29T19:44:07.485Z,99394.47
2022-10-29T19:46:35.978Z,99396.50
2022-10-29T19:49:04.553Z,99401.81
2022-10-29T19:51:32.907Z,99397.22
2022-10-29T19:54:03.340Z,99394.44
2022-10-29T19:56:31.628Z,99388.53
2022-10-29T19:58:59.997Z,99393.38
2022-10-29T20:01:28.430Z,99391.34
2022-10-29T20:03:57.869Z,99392.59
2022-10-29T20:06:26.253Z,99386.75
2022-10-29T20:08:54.542Z,99389.28
2022-10-29T20:11:25.428Z,99380.13
2022-10-29T20:13:53.740Z,99386.94
2022-10-29T20:16:22.882Z,99381.59
2022-10-29T20:18:51.937Z,99382.84
2022-10-29T20:21:20.483Z,99383.34
2022-10-29T20:23:48.909Z,99378.75
2022-10-29T20:26:17.351Z,99376.47
2022-10-29T20:28:45.777Z,99381.78
2022-10-29T20:31:20.333Z,99373.13
2022-10-29T20:33:53.555Z,99377.69
2022-10-29T20:36:23.134Z,99376.91
2022-10-29T20:38:52.853Z,99368.25
2022-10-29T20:41:22.764Z,99368.75
2022-10-29T20:43:56.138Z,99364.94
2022-10-29T20:46:25.959Z,99364.66
2022-10-29T20:48:54.885Z,99369.94
2022-10-29T20:51:24.028Z,99366.13
2022-10-29T20:53:53.568Z,99369.41
2022-10-29T20:56:23.474Z,99369.13
2022-10-29T20:58:52.287Z,99375.97
2022-10-29T21:01:23.809Z,99377.25
2022-10-29T21:03:52.778Z,99376.47
2022-10-29T21:06:21.559Z,99366.31
2022-10-29T21:08:52.470Z,99372.38
2022-10-29T21:11:22.577Z,99369.31
2022-10-29T21:13:51.691Z,99362.19
2022-10-29T21:16:27.464Z,99375.41
2022-10-29T21:19:01.349Z,99373.09
2022-10-29T21:21:31.042Z,99364.44
2022-10-29T21:23:59.977Z,99364.94
2022-10-29T21:26:29.300Z,99373.81
2022-10-29T21:28:57.743Z,99364.66
2022-10-29T21:31:26.257Z,99372.28
2022-10-29T21:33:56.043Z,99364.41
2022-10-29T21:36:24.505Z,99373.25
2022-10-29T21:38:52.787Z,99368.16
2022-10-29T21:41:21.144Z,99365.84
2022-10-29T21:43:49.476Z,99364.31
2022-10-29T21:46:17.792Z,99359.22
2022-10-29T21:48:46.237Z,99368.09
2022-10-29T21:51:17.197Z,99364.53
2022-10-29T21:53:45.782Z,99362.75
2022-10-29T21:56:16.133Z,99371.59
2022-10-29T21:58:45.108Z,99364.00
2022-10-29T22:01:16.040Z,99370.06
2022-10-29T22:03:46.318Z,99369.31
2022-10-29T22:06:26.701Z,99376.09
2022-10-29T22:08:57.465Z,99364.69
2022-10-29T22:11:27.419Z,99373.81
2022-10-29T22:13:56.291Z,99376.34
2022-10-29T22:16:25.079Z,99376.06
2022-10-29T22:18:54.770Z,99370.47
2022-10-29T22:21:26.342Z,99379.34
2022-10-29T22:23:57.821Z,99380.59
2022-10-29T22:26:31.045Z,99371.94
2022-10-29T22:28:59.380Z,99382.34
2022-10-29T22:31:28.358Z,99381.56
2022-10-29T22:33:56.829Z,99382.81
2022-10-29T22:36:27.440Z,99387.63
2022-10-29T22:38:57.598Z,99385.31
2022-10-29T22:41:26.975Z,99385.53
2022-10-29T22:43:56.505Z,99390.34
2022-10-29T22:46:24.855Z,99388.06
2022-10-29T22:48:53.209Z,99390.06
2022-10-29T22:51:26.944Z,99397.69
2022-10-29T22:53:55.583Z,99394.63
2022-10-29T22:56:26.455Z,99401.44
2022-10-29T22:58:55.172Z,99405.50
2022-10-29T23:01:27.556Z,99408.00
2022-10-29T23:03:56.508Z,99417.13
2022-10-29T23:06:26.000Z,99423.97
2022-10-29T23:08:57.012Z,99422.72
2022-10-29T23:11:31.264Z,99428.28
2022-10-29T23:14:02.917Z,99421.19
2022-10-29T23:16:33.749Z,99431.09
2022-10-29T23:19:04.324Z,99439.44
2022-10-29T23:21:33.355Z,99439.44
2022-10-29T23:24:01.822Z,99439.44
2022-10-29T23:26:30.182Z,99438.19
2022-10-29T23:28:58.557Z,99443.78
2022-10-29T23:31:29.179Z,99448.84
2022-10-29T23:33:58.988Z,99453.19
2022-10-29T23:36:28.378Z,99451.94
2022-10-29T23:38:58.729Z,99455.47
2022-10-29T23:41:28.554Z,99459.81
2022-10-29T23:43:57.111Z,99462.88
2022-10-29T23:46:25.781Z,99467.19
2022-10-29T23:48:54.085Z,99469.50
2022-10-29T23:51:22.555Z,99466.22
2022-10-29T23:53:54.727Z,99470.84
2022-10-29T23:56:26.943Z,99475.19
2022-10-29T23:58:55.437Z,99475.44
